createdAt,value
2023-01-10T00:00:02.220Z,15.87
2023-01-10T00:02:30.067Z,18.40
2023-01-10T00:04:59.215Z,16.37
2023-01-10T00:07:27.014Z,17.57
2023-01-10T00:09:54.739Z,22.03
2023-01-10T00:12:39.992Z,23.97
2023-01-10T00:15:08.597Z,19.77
2023-01-10T00:17:36.318Z,24.43
2023-01-10T00:20:06.336Z,23.20
2023-01-10T00:22:34.130Z,25.53
2023-01-10T00:25:01.993Z,19.90
2023-01-10T00:27:29.812Z,22.93
2023-01-10T00:30:01.022Z,25.30
2023-01-10T00:32:28.726Z,27.23
2023-01-10T00:34:56.581Z,28.27
2023-01-10T00:37:25.700Z,28.43
2023-01-10T00:39:53.425Z,28.40
2023-01-10T00:42:38.576Z,27.87
2023-01-10T00:45:06.969Z,28.47
2023-01-10T00:47:34.681Z,27.07
2023-01-10T00:50:04.057Z,32.70
2023-01-10T00:52:33.171Z,32.77
2023-01-10T00:55:00.889Z,33.57
2023-01-10T00:57:28.598Z,31.10
2023-01-10T00:59:56.315Z,31.23
2023-01-10T01:02:24.290Z,30.80
2023-01-10T01:04:52.114Z,32.07
2023-01-10T01:07:19.887Z,29.60
2023-01-10T01:10:06.495Z,27.53
2023-01-10T01:12:34.226Z,33.20
2023-01-10T01:15:02.052Z,29.10
2023-01-10T01:17:29.771Z,33.70
2023-01-10T01:19:57.514Z,32.70
2023-01-10T01:22:25.263Z,34.50
2023-01-10T01:24:54.351Z,32.20
2023-01-10T01:27:22.115Z,33.17
2023-01-10T01:29:49.919Z,32.27
2023-01-10T01:32:17.759Z,33.07
2023-01-10T01:34:45.628Z,34.00
2023-01-10T01:37:13.371Z,31.90
2023-01-10T01:39:41.118Z,32.30
2023-01-10T01:42:23.279Z,30.80
2023-01-10T01:45:26.432Z,33.27
2023-01-10T01:47:58.205Z,33.03
2023-01-10T01:50:29.322Z,30.57
2023-01-10T01:53:01.848Z,30.73
2023-01-10T01:55:34.112Z,29.47
2023-01-10T01:58:09.769Z,30.10
2023-01-10T02:00:37.512Z,32.73
2023-01-10T02:03:07.172Z,27.87
2023-01-10T02:05:37.974Z,28.97
2023-01-10T02:08:06.414Z,29.80
2023-01-10T02:10:42.210Z,30.80
2023-01-10T02:13:15.689Z,29.23
2023-01-10T02:15:43.481Z,31.67
2023-01-10T02:18:11.982Z,32.13
2023-01-10T02:20:52.268Z,32.50
2023-01-10T02:23:52.820Z,31.83
2023-01-10T02:26:56.369Z,28.77
2023-01-10T02:30:05.919Z,33.77
2023-01-10T02:32:57.015Z,28.03
2023-01-10T02:35:50.027Z,28.57
2023-01-10T02:38:29.107Z,31.17
2023-01-10T02:41:07.175Z,27.53
2023-01-10T02:43:38.894Z,29.17
2023-01-10T02:46:09.855Z,29.73
2023-01-10T02:48:38.991Z,28.07
2023-01-10T02:51:18.673Z,33.70
2023-01-10T02:53:50.115Z,31.33
2023-01-10T02:56:44.505Z,30.07
2023-01-10T02:59:40.017Z,28.83
2023-01-10T03:02:17.853Z,30.13
2023-01-10T03:04:54.070Z,27.23
2023-01-10T03:07:29.029Z,29.70
2023-01-10T03:10:04.216Z,28.33
2023-01-10T03:12:42.301Z,25.30
2023-01-10T03:15:13.551Z,29.27
2023-01-10T03:17:44.526Z,24.00
2023-01-10T03:20:14.332Z,25.90
2023-01-10T03:22:43.257Z,26.77
2023-01-10T03:25:15.624Z,24.67
2023-01-10T03:27:52.800Z,24.87
2023-01-10T03:30:27.600Z,28.37
2023-01-10T03:32:59.937Z,27.43
2023-01-10T03:35:36.434Z,29.63
2023-01-10T03:38:11.170Z,30.23
2023-01-10T03:40:46.473Z,25.10
2023-01-10T03:43:36.783Z,29.63
2023-01-10T03:46:08.121Z,27.83
2023-01-10T03:48:38.280Z,23.63
2023-01-10T03:51:09.377Z,28.10
2023-01-10T03:53:40.281Z,23.77
2023-01-10T03:56:09.017Z,23.23
2023-01-10T03:58:36.743Z,29.33
2023-01-10T04:01:04.548Z,22.57
2023-01-10T04:03:32.287Z,32.13
2023-01-10T04:06:00.009Z,29.43
2023-01-10T04:08:29.081Z,30.00
2023-01-10T04:10:56.822Z,27.70
2023-01-10T04:13:24.511Z,26.13
2023-01-10T04:15:52.463Z,28.20
2023-01-10T04:18:20.262Z,23.10
2023-01-10T04:20:48.001Z,22.53
2023-01-10T04:23:15.715Z,25.20
2023-01-10T04:25:47.795Z,25.33
2023-01-10T04:28:15.617Z,24.03
2023-01-10T04:30:43.338Z,21.77
2023-01-10T04:33:12.581Z,23.93
2023-01-10T04:35:40.284Z,33.20
2023-01-10T04:38:08.001Z,21.30
2023-01-10T04:40:35.707Z,21.03
2023-01-10T04:43:04.795Z,23.07
2023-01-10T04:45:32.624Z,22.00
2023-01-10T04:48:00.411Z,21.90
2023-01-10T04:50:28.420Z,18.77
2023-01-10T04:52:56.174Z,27.27
2023-01-10T04:55:23.900Z,22.10
2023-01-10T04:57:51.627Z,23.13
2023-01-10T05:00:21.284Z,21.90
2023-01-10T05:02:49.177Z,24.40
2023-01-10T05:05:17.112Z,21.20
2023-01-10T05:07:47.362Z,15.80
2023-01-10T05:10:15.249Z,24.73
2023-01-10T05:12:42.958Z,18.23
2023-01-10T05:15:11.383Z,15.40
2023-01-10T05:17:40.578Z,23.30
2023-01-10T05:20:09.941Z,19.27
2023-01-10T05:22:37.663Z,10.73
2023-01-10T05:25:06.040Z,15.40
2023-01-10T05:27:33.772Z,14.60
2023-01-10T05:30:01.460Z,14.60
2023-01-10T05:32:30.463Z,12.60
2023-01-10T05:34:59.549Z,15.80
2023-01-10T05:37:27.234Z,13.23
2023-01-10T05:39:54.947Z,16.53
2023-01-10T05:42:22.677Z,16.93
2023-01-10T05:44:50.794Z,13.03
2023-01-10T05:47:18.514Z,15.80
2023-01-10T05:49:46.231Z,8.80
2023-01-10T05:52:15.717Z,9.73
2023-01-10T05:54:44.159Z,8.97
2023-01-10T05:57:11.908Z,12.40
2023-01-10T05:59:39.660Z,8.33
2023-01-10T06:02:07.502Z,6.87
2023-01-10T06:04:35.295Z,11.07
2023-01-10T06:07:03.068Z,14.10
2023-01-10T06:09:32.733Z,9.23
2023-01-10T06:12:00.528Z,10.67
2023-01-10T06:14:28.297Z,8.27
2023-01-10T06:16:56.038Z,7.40
2023-01-10T06:19:23.801Z,12.17
2023-01-10T06:21:51.502Z,16.37
2023-01-10T06:24:19.603Z,7.10
2023-01-10T06:26:48.682Z,10.83
2023-01-10T06:29:16.407Z,6.50
2023-01-10T06:31:44.161Z,8.73
2023-01-10T06:34:11.982Z,11.73
2023-01-10T06:36:39.715Z,10.67
2023-01-10T06:39:07.441Z,9.47
2023-01-10T06:41:35.183Z,13.20
2023-01-10T06:44:04.300Z,12.87
2023-01-10T06:46:32.421Z,9.37
2023-01-10T06:49:00.141Z,12.13
2023-01-10T06:51:28.585Z,8.73
2023-01-10T06:53:56.533Z,11.33
2023-01-10T06:56:24.276Z,17.70
2023-01-10T06:58:52.190Z,13.23
2023-01-10T07:01:22.517Z,12.87
2023-01-10T07:03:50.367Z,10.47
2023-01-10T07:06:18.311Z,13.87
2023-01-10T07:08:47.181Z,10.90
2023-01-10T07:11:16.746Z,14.13
2023-01-10T07:13:44.540Z,15.60
2023-01-10T07:16:14.398Z,16.03
2023-01-10T07:18:44.428Z,11.50
2023-01-10T07:21:12.909Z,10.80
2023-01-10T07:23:40.728Z,14.33
2023-01-10T07:26:11.500Z,13.73
2023-01-10T07:28:39.268Z,9.17
2023-01-10T07:31:07.534Z,14.33
2023-01-10T07:33:35.288Z,11.73
2023-01-10T07:36:04.747Z,10.33
2023-01-10T07:38:32.501Z,11.00
2023-01-10T07:41:02.683Z,8.10
2023-01-10T07:43:30.701Z,12.63
2023-01-10T07:46:00.057Z,13.20
2023-01-10T07:48:28.213Z,11.77
2023-01-10T07:50:57.229Z,12.60
2023-01-10T07:53:27.208Z,8.17
2023-01-10T07:55:55.589Z,11.33
2023-01-10T07:58:23.291Z,10.87
2023-01-10T08:00:51.143Z,14.83
2023-01-10T08:03:19.182Z,13.43
2023-01-10T08:05:46.983Z,10.20
2023-01-10T08:08:16.777Z,21.30
2023-01-10T08:10:45.903Z,12.90
2023-01-10T08:13:18.790Z,8.57
2023-01-10T08:15:50.358Z,11.37
2023-01-10T08:18:18.362Z,14.73
2023-01-10T08:20:47.213Z,9.80
2023-01-10T08:23:15.263Z,10.93
2023-01-10T08:25:43.034Z,11.40
2023-01-10T08:28:12.151Z,13.00
2023-01-10T08:30:40.250Z,8.70
2023-01-10T08:33:09.027Z,8.90
2023-01-10T08:35:40.228Z,9.07
2023-01-10T08:38:08.354Z,11.93
2023-01-10T08:40:36.177Z,10.03
2023-01-10T08:43:06.511Z,10.87
2023-01-10T08:45:37.396Z,6.93
2023-01-10T08:48:06.122Z,7.13
2023-01-10T08:50:34.194Z,9.70
2023-01-10T08:53:02.557Z,10.13
2023-01-10T08:55:32.113Z,6.13
2023-01-10T08:58:00.880Z,7.87
2023-01-10T09:00:28.885Z,9.50
2023-01-10T09:02:58.259Z,6.20
2023-01-10T09:05:28.421Z,6.73
2023-01-10T09:08:00.071Z,10.33
2023-01-10T09:10:28.599Z,4.93
2023-01-10T09:12:56.325Z,13.43
2023-01-10T09:15:25.909Z,6.97
2023-01-10T09:17:55.354Z,6.97
2023-01-10T09:20:26.020Z,7.93
2023-01-10T09:22:54.023Z,6.90
2023-01-10T09:25:22.321Z,8.20
2023-01-10T09:27:57.517Z,6.97
2023-01-10T09:30:25.551Z,9.97
2023-01-10T09:32:53.811Z,7.53
2023-01-10T09:35:21.898Z,5.50
2023-01-10T09:37:51.476Z,2.43
2023-01-10T09:40:25.429Z,6.50
2023-01-10T09:43:06.946Z,12.73
2023-01-10T09:45:43.469Z,7.80
2023-01-10T09:48:19.386Z,10.93
2023-01-10T09:51:00.306Z,9.23
2023-01-10T09:53:34.457Z,14.40
2023-01-10T09:56:04.177Z,10.87
2023-01-10T09:58:35.394Z,8.73
2023-01-10T10:01:07.312Z,14.07
2023-01-10T10:03:43.180Z,14.53
2023-01-10T10:06:13.656Z,8.43
2023-01-10T10:08:44.603Z,8.03
2023-01-10T10:11:32.197Z,15.10
2023-01-10T10:14:08.329Z,5.07
2023-01-10T10:16:47.489Z,8.77
2023-01-10T10:19:23.118Z,12.47
2023-01-10T10:21:59.828Z,10.20
2023-01-10T10:24:45.836Z,5.00
2023-01-10T10:27:22.717Z,5.90
2023-01-10T10:30:20.168Z,8.63
2023-01-10T10:32:59.286Z,8.23
2023-01-10T10:35:30.777Z,13.30
2023-01-10T10:38:03.187Z,7.10
2023-01-10T10:40:37.472Z,6.27
2023-01-10T10:43:15.644Z,7.10
2023-01-10T10:45:47.217Z,3.90
2023-01-10T10:48:19.103Z,11.73
2023-01-10T10:50:57.810Z,6.40
2023-01-10T10:53:25.665Z,6.07
2023-01-10T10:55:55.227Z,10.47
2023-01-10T10:58:23.045Z,7.73
2023-01-10T11:00:51.082Z,9.20
2023-01-10T11:03:28.281Z,7.50
2023-01-10T11:05:57.101Z,11.00
2023-01-10T11:08:25.407Z,8.07
2023-01-10T11:10:56.677Z,9.40
2023-01-10T11:13:36.593Z,7.83
2023-01-10T11:16:07.022Z,8.70
2023-01-10T11:18:35.090Z,4.27
2023-01-10T11:21:06.804Z,7.97
2023-01-10T11:23:41.858Z,10.03
2023-01-10T11:26:23.323Z,8.37
2023-01-10T11:28:53.553Z,8.47
2023-01-10T11:31:29.232Z,11.20
2023-01-10T11:33:58.502Z,12.17
2023-01-10T11:36:26.260Z,9.07
2023-01-10T11:39:03.763Z,5.90
2023-01-10T11:41:34.407Z,9.53
2023-01-10T11:44:18.538Z,11.40
2023-01-10T11:46:47.474Z,11.20
2023-01-10T11:49:20.444Z,10.10
2023-01-10T11:51:50.890Z,8.97
2023-01-10T11:54:22.391Z,7.43
2023-01-10T11:56:58.249Z,8.90
2023-01-10T11:59:27.551Z,13.13
2023-01-10T12:02:00.338Z,13.87
2023-01-10T12:04:30.720Z,9.87
2023-01-10T12:07:02.811Z,12.30
2023-01-10T12:09:42.414Z,15.23
2023-01-10T12:12:23.078Z,12.13
2023-01-10T12:14:51.690Z,8.47
2023-01-10T12:17:24.585Z,11.47
2023-01-10T12:19:53.645Z,12.10
2023-01-10T12:22:27.252Z,11.30
2023-01-10T12:24:56.428Z,8.73
2023-01-10T12:27:29.342Z,15.07
2023-01-10T12:30:04.543Z,8.10
2023-01-10T12:32:37.665Z,13.77
2023-01-10T12:35:11.853Z,8.73
2023-01-10T12:37:46.469Z,13.80
2023-01-10T12:40:21.070Z,13.47
2023-01-10T12:43:13.474Z,7.70
2023-01-10T12:45:46.859Z,9.47
2023-01-10T12:48:23.005Z,9.83
2023-01-10T12:50:58.700Z,8.40
2023-01-10T12:53:32.296Z,10.00
2023-01-10T12:56:04.846Z,8.57
2023-01-10T12:58:40.284Z,7.73
2023-01-10T13:01:09.698Z,7.80
2023-01-10T13:03:38.092Z,8.83
2023-01-10T13:06:06.157Z,9.07
2023-01-10T13:08:35.669Z,6.67
2023-01-10T13:11:04.483Z,9.00
2023-01-10T13:13:37.070Z,9.70
2023-01-10T13:16:21.073Z,9.47
2023-01-10T13:19:06.460Z,9.93
2023-01-10T13:21:35.720Z,9.67
2023-01-10T13:24:05.529Z,12.67
2023-01-10T13:26:49.461Z,9.53
2023-01-10T13:29:21.892Z,8.90
2023-01-10T13:31:57.023Z,10.07
2023-01-10T13:34:27.997Z,10.67
2023-01-10T13:36:58.896Z,8.83
2023-01-10T13:39:32.004Z,9.37
2023-01-10T13:42:44.275Z,13.37
2023-01-10T13:45:28.396Z,8.30
2023-01-10T13:48:17.948Z,7.53
2023-01-10T13:50:58.372Z,11.63
2023-01-10T13:53:46.851Z,4.20
2023-01-10T13:56:39.429Z,5.13
2023-01-10T13:59:31.369Z,5.53
2023-01-10T14:02:19.912Z,7.53
2023-01-10T14:04:51.976Z,10.00
2023-01-10T14:07:25.099Z,6.93
2023-01-10T14:09:54.156Z,6.10
2023-01-10T14:12:35.674Z,9.27
2023-01-10T14:15:08.273Z,6.90
2023-01-10T14:17:39.064Z,3.90
2023-01-10T14:20:17.662Z,7.43
2023-01-10T14:22:59.093Z,4.83
2023-01-10T14:25:27.775Z,5.00
2023-01-10T14:27:57.284Z,11.33
2023-01-10T14:30:28.700Z,10.93
2023-01-10T14:33:02.433Z,6.77
2023-01-10T14:35:37.140Z,9.27
2023-01-10T14:38:06.413Z,9.13
2023-01-10T14:40:40.966Z,5.93
2023-01-10T14:43:13.096Z,9.47
2023-01-10T14:45:49.054Z,6.83
2023-01-10T14:48:41.617Z,7.40
2023-01-10T14:51:21.038Z,12.93
2023-01-10T14:53:55.788Z,9.77
2023-01-10T14:56:25.845Z,10.17
2023-01-10T14:58:53.752Z,10.03
2023-01-10T15:01:25.665Z,11.07
2023-01-10T15:03:56.931Z,11.47
2023-01-10T15:06:25.972Z,9.47
2023-01-10T15:08:58.418Z,11.17
2023-01-10T15:11:27.785Z,7.93
2023-01-10T15:14:00.468Z,7.47
2023-01-10T15:16:29.847Z,9.40
2023-01-10T15:18:59.037Z,11.60
2023-01-10T15:21:26.960Z,5.90
2023-01-10T15:23:54.694Z,7.20
2023-01-10T15:26:28.519Z,11.40
2023-01-10T15:29:14.006Z,7.97
2023-01-10T15:31:44.434Z,8.57
2023-01-10T15:34:19.165Z,12.57
2023-01-10T15:36:50.520Z,6.93
2023-01-10T15:39:24.107Z,12.30
2023-01-10T15:41:57.899Z,7.67
2023-01-10T15:44:36.350Z,8.83
2023-01-10T15:47:04.453Z,11.40
2023-01-10T15:49:33.949Z,14.60
2023-01-10T15:52:01.705Z,12.13
2023-01-10T15:54:32.096Z,11.10
2023-01-10T15:57:07.534Z,11.53
2023-01-10T15:59:39.331Z,11.63
2023-01-10T16:02:22.615Z,13.27
2023-01-10T16:04:55.345Z,12.90
2023-01-10T16:07:27.572Z,5.60
2023-01-10T16:09:59.382Z,8.47
2023-01-10T16:12:52.953Z,10.83
2023-01-10T16:15:23.254Z,8.97
2023-01-10T16:17:51.332Z,10.03
2023-01-10T16:20:22.611Z,12.67
2023-01-10T16:22:53.382Z,7.97
2023-01-10T16:25:28.348Z,9.17
2023-01-10T16:27:56.385Z,8.30
2023-01-10T16:30:26.477Z,12.73
2023-01-10T16:32:57.190Z,10.87
2023-01-10T16:35:26.959Z,10.43
2023-01-10T16:37:57.155Z,15.13
2023-01-10T16:40:28.435Z,11.87
2023-01-10T16:43:14.058Z,10.30
2023-01-10T16:45:42.015Z,15.07
2023-01-10T16:48:10.202Z,14.13
2023-01-10T16:50:39.435Z,14.23
2023-01-10T16:53:07.245Z,12.57
2023-01-10T16:55:40.891Z,12.40
2023-01-10T16:58:09.289Z,12.13
2023-01-10T17:00:37.486Z,9.23
2023-01-10T17:03:10.156Z,9.10
2023-01-10T17:05:40.164Z,14.43
2023-01-10T17:08:15.065Z,12.17
2023-01-10T17:10:42.951Z,6.93
2023-01-10T17:13:12.041Z,9.73
2023-01-10T17:15:39.827Z,10.70
2023-01-10T17:18:08.033Z,12.07
2023-01-10T17:20:35.800Z,9.57
2023-01-10T17:23:04.842Z,13.60
2023-01-10T17:25:32.591Z,16.87
2023-01-10T17:28:00.318Z,13.83
2023-01-10T17:30:28.076Z,11.70
2023-01-10T17:32:55.830Z,12.83
2023-01-10T17:35:27.461Z,15.07
2023-01-10T17:37:56.741Z,9.27
2023-01-10T17:40:26.007Z,15.03
2023-01-10T17:42:53.821Z,9.63
2023-01-10T17:45:21.586Z,14.23
2023-01-10T17:47:50.690Z,14.13
2023-01-10T17:50:18.655Z,10.20
2023-01-10T17:52:46.361Z,12.27
2023-01-10T17:55:14.102Z,13.33
2023-01-10T17:57:43.313Z,10.60
2023-01-10T18:00:12.249Z,14.17
2023-01-10T18:02:40.056Z,14.83
2023-01-10T18:05:08.550Z,12.23
2023-01-10T18:07:36.318Z,10.63
2023-01-10T18:10:04.441Z,14.47
2023-01-10T18:12:32.157Z,10.10
2023-01-10T18:15:01.250Z,10.73
2023-01-10T18:17:29.025Z,10.30
2023-01-10T18:19:56.951Z,13.27
2023-01-10T18:22:42.132Z,13.80
2023-01-10T18:25:10.174Z,12.40
2023-01-10T18:27:37.893Z,14.47
2023-01-10T18:30:08.193Z,14.07
2023-01-10T18:32:36.038Z,14.50
2023-01-10T18:35:03.842Z,12.67
2023-01-10T18:37:31.578Z,17.07
2023-01-10T18:39:59.357Z,11.93
2023-01-10T18:42:27.070Z,14.40
2023-01-10T18:44:54.786Z,14.83
2023-01-10T18:47:23.889Z,14.27
2023-01-10T18:49:51.595Z,16.00
2023-01-10T18:52:21.053Z,14.60
2023-01-10T18:54:48.802Z,12.90
2023-01-10T18:57:16.531Z,16.13
2023-01-10T18:59:44.281Z,19.23
2023-01-10T19:02:16.904Z,13.77
2023-01-10T19:04:46.077Z,13.57
2023-01-10T19:07:13.811Z,12.53
2023-01-10T19:09:41.639Z,20.90
2023-01-10T19:12:09.405Z,16.87
2023-01-10T19:14:37.169Z,20.93
2023-01-10T19:17:04.908Z,12.63
2023-01-10T19:19:32.621Z,13.07
2023-01-10T19:22:01.732Z,16.30
2023-01-10T19:24:32.736Z,14.93
2023-01-10T19:27:00.483Z,14.63
2023-01-10T19:29:30.362Z,15.53
2023-01-10T19:31:58.691Z,16.67
2023-01-10T19:34:26.443Z,17.90
2023-01-10T19:36:54.186Z,16.97
2023-01-10T19:39:23.296Z,11.70
2023-01-10T19:41:51.047Z,10.47
2023-01-10T19:44:18.745Z,18.60
2023-01-10T19:46:47.605Z,17.17
2023-01-10T19:49:17.702Z,16.03
2023-01-10T19:51:49.255Z,16.27
2023-01-10T19:54:16.963Z,17.63
2023-01-10T19:56:46.273Z,16.63
2023-01-10T19:59:14.868Z,12.37
2023-01-10T20:01:42.740Z,16.70
2023-01-10T20:04:11.006Z,12.70
2023-01-10T20:06:40.951Z,13.70
2023-01-10T20:09:11.376Z,13.23
2023-01-10T20:11:40.515Z,13.13
2023-01-10T20:14:13.380Z,15.33
2023-01-10T20:16:41.654Z,15.53
2023-01-10T20:19:10.544Z,12.57
2023-01-10T20:21:39.485Z,11.50
2023-01-10T20:24:11.873Z,12.33
2023-01-10T20:26:39.834Z,12.83
2023-01-10T20:29:08.997Z,15.07
2023-01-10T20:31:36.821Z,12.50
2023-01-10T20:34:04.700Z,13.43
2023-01-10T20:36:33.431Z,14.70
2023-01-10T20:39:01.270Z,12.67
2023-01-10T20:41:30.623Z,17.27
2023-01-10T20:43:59.109Z,15.00
2023-01-10T20:46:30.736Z,13.83
2023-01-10T20:49:02.261Z,9.90
2023-01-10T20:51:32.810Z,11.30
2023-01-10T20:54:01.096Z,11.83
2023-01-10T20:56:31.376Z,12.90
2023-01-10T20:58:59.882Z,17.17
2023-01-10T21:01:35.182Z,16.77
2023-01-10T21:04:04.790Z,14.73
2023-01-10T21:06:33.060Z,11.07
2023-01-10T21:09:01.128Z,12.37
2023-01-10T21:11:28.898Z,12.47
2023-01-10T21:13:56.718Z,9.67
2023-01-10T21:16:25.532Z,7.60
2023-01-10T21:18:54.827Z,11.47
2023-01-10T21:21:23.550Z,11.00
2023-01-10T21:23:51.443Z,11.87
2023-01-10T21:26:19.462Z,13.23
2023-01-10T21:28:47.864Z,9.17
2023-01-10T21:31:17.684Z,7.07
2023-01-10T21:33:45.589Z,5.83
2023-01-10T21:36:14.848Z,7.67
2023-01-10T21:38:43.925Z,9.33
2023-01-10T21:41:14.607Z,6.17
2023-01-10T21:43:44.546Z,5.93
2023-01-10T21:46:12.985Z,7.67
2023-01-10T21:48:40.979Z,4.37
2023-01-10T21:51:08.715Z,9.13
2023-01-10T21:53:41.306Z,9.13
2023-01-10T21:56:09.460Z,4.27
2023-01-10T21:58:37.198Z,6.33
2023-01-10T22:01:05.057Z,4.40
2023-01-10T22:03:32.881Z,7.60
2023-01-10T22:06:02.518Z,8.23
2023-01-10T22:08:30.293Z,4.43
2023-01-10T22:10:59.381Z,5.33
2023-01-10T22:13:27.336Z,6.33
2023-01-10T22:15:59.031Z,6.03
2023-01-10T22:18:26.842Z,2.90
2023-01-10T22:20:55.705Z,5.67
2023-01-10T22:23:24.389Z,7.03
2023-01-10T22:26:04.584Z,5.60
2023-01-10T22:28:32.981Z,3.27
2023-01-10T22:31:01.253Z,4.50
2023-01-10T22:33:29.833Z,11.80
2023-01-10T22:35:58.283Z,6.60
2023-01-10T22:38:26.009Z,3.53
2023-01-10T22:40:53.754Z,2.60
2023-01-10T22:43:22.829Z,4.63
2023-01-10T22:45:50.555Z,3.00
2023-01-10T22:48:18.321Z,6.30
2023-01-10T22:50:49.719Z,4.80
2023-01-10T22:53:17.439Z,2.77
2023-01-10T22:55:45.190Z,3.07
2023-01-10T22:58:12.953Z,3.03
2023-01-10T23:00:42.089Z,7.13
2023-01-10T23:03:09.810Z,4.30
2023-01-10T23:05:37.584Z,6.43
2023-01-10T23:08:05.658Z,3.53
2023-01-10T23:10:33.473Z,4.97
2023-01-10T23:13:02.097Z,5.10
2023-01-10T23:15:30.696Z,6.23
2023-01-10T23:17:59.959Z,5.23
2023-01-10T23:20:27.762Z,5.27
2023-01-10T23:22:55.469Z,6.80
2023-01-10T23:25:23.221Z,6.43
2023-01-10T23:27:51.366Z,5.63
2023-01-10T23:30:19.360Z,5.67
2023-01-10T23:32:47.061Z,4.33
2023-01-10T23:35:16.258Z,5.40
2023-01-10T23:37:44.041Z,4.43
2023-01-10T23:40:13.034Z,1.70
2023-01-10T23:42:40.797Z,5.10
2023-01-10T23:45:09.837Z,7.57
2023-01-10T23:47:37.569Z,3.67
2023-01-10T23:50:06.319Z,5.87
2023-01-10T23:52:35.415Z,4.97
2023-01-10T23:55:03.149Z,3.40
2023-01-10T23:57:30.850Z,4.30
2023-01-10T23:59:59.873Z,2.80
